sensor_id;sensor_type;location;lat;lon;timestamp;P1;durP1;ratioP1;P2;durP2;ratioP2
23990;SDS011;12205;50.600;4.608;2024-03-06T00:00:36;95.47;;;21.33;;
23990;SDS011;12205;50.600;4.608;2024-03-06T00:03:03;81.90;;;18.13;;
23990;SDS011;12205;50.600;4.608;2024-03-06T00:05:30;63.22;;;14.52;;
23990;SDS011;12205;50.600;4.608;2024-03-06T00:07:59;78.65;;;18.27;;
23990;SDS011;12205;50.600;4.608;2024-03-06T00:10:28;64.80;;;14.73;;
23990;SDS011;12205;50.600;4.608;2024-03-06T00:12:55;61.45;;;14.07;;
23990;SDS011;12205;50.600;4.608;2024-03-06T00:15:22;80.00;;;17.55;;
23990;SDS011;12205;50.600;4.608;2024-03-06T00:17:49;60.75;;;13.52;;
23990;SDS011;12205;50.600;4.608;2024-03-06T00:20:16;88.20;;;19.48;;
23990;SDS011;12205;50.600;4.608;2024-03-06T00:22:43;89.47;;;19.77;;
23990;SDS011;12205;50.600;4.608;2024-03-06T00:25:11;64.00;;;14.38;;
23990;SDS011;12205;50.600;4.608;2024-03-06T00:27:38;77.50;;;17.60;;
23990;SDS011;12205;50.600;4.608;2024-03-06T00:30:05;68.72;;;15.73;;
23990;SDS011;12205;50.600;4.608;2024-03-06T00:32:33;75.03;;;16.52;;
23990;SDS011;12205;50.600;4.608;2024-03-06T00:35:00;88.15;;;19.15;;
23990;SDS011;12205;50.600;4.608;2024-03-06T00:37:27;85.53;;;19.25;;
23990;SDS011;12205;50.600;4.608;2024-03-06T00:39:53;76.50;;;17.02;;
23990;SDS011;12205;50.600;4.608;2024-03-06T00:42:22;82.95;;;18.38;;
23990;SDS011;12205;50.600;4.608;2024-03-06T00:44:49;78.60;;;17.25;;
23990;SDS011;12205;50.600;4.608;2024-03-06T00:47:16;75.55;;;16.95;;
23990;SDS011;12205;50.600;4.608;2024-03-06T00:49:42;95.65;;;20.38;;
23990;SDS011;12205;50.600;4.608;2024-03-06T00:52:09;67.60;;;15.30;;
23990;SDS011;12205;50.600;4.608;2024-03-06T00:54:36;68.70;;;15.23;;
23990;SDS011;12205;50.600;4.608;2024-03-06T00:57:03;76.05;;;17.25;;
23990;SDS011;12205;50.600;4.608;2024-03-06T00:59:31;63.05;;;14.18;;
23990;SDS011;12205;50.600;4.608;2024-03-06T01:01:58;72.75;;;16.17;;
23990;SDS011;12205;50.600;4.608;2024-03-06T01:04:25;82.88;;;18.00;;
23990;SDS011;12205;50.600;4.608;2024-03-06T01:06:52;84.38;;;18.85;;
23990;SDS011;12205;50.600;4.608;2024-03-06T01:09:19;75.00;;;17.02;;
23990;SDS011;12205;50.600;4.608;2024-03-06T01:11:46;95.28;;;21.52;;
23990;SDS011;12205;50.600;4.608;2024-03-06T01:14:13;67.72;;;15.20;;
23990;SDS011;12205;50.600;4.608;2024-03-06T01:16:41;72.45;;;16.35;;
23990;SDS011;12205;50.600;4.608;2024-03-06T01:19:08;71.90;;;15.43;;
23990;SDS011;12205;50.600;4.608;2024-03-06T01:21:35;74.22;;;15.68;;
23990;SDS011;12205;50.600;4.608;2024-03-06T01:24:02;69.57;;;15.80;;
23990;SDS011;12205;50.600;4.608;2024-03-06T01:26:29;77.40;;;16.80;;
23990;SDS011;12205;50.600;4.608;2024-03-06T01:28:56;68.28;;;15.15;;
23990;SDS011;12205;50.600;4.608;2024-03-06T01:31:22;84.38;;;18.98;;
23990;SDS011;12205;50.600;4.608;2024-03-06T01:33:51;98.18;;;22.77;;
23990;SDS011;12205;50.600;4.608;2024-03-06T01:36:19;76.22;;;17.00;;
23990;SDS011;12205;50.600;4.608;2024-03-06T01:38:45;76.38;;;17.70;;
23990;SDS011;12205;50.600;4.608;2024-03-06T01:41:13;74.07;;;16.80;;
23990;SDS011;12205;50.600;4.608;2024-03-06T01:43:40;91.57;;;19.73;;
23990;SDS011;12205;50.600;4.608;2024-03-06T01:46:07;64.13;;;14.35;;
23990;SDS011;12205;50.600;4.608;2024-03-06T01:48:34;69.28;;;15.05;;
23990;SDS011;12205;50.600;4.608;2024-03-06T01:51:03;89.78;;;19.60;;
23990;SDS011;12205;50.600;4.608;2024-03-06T01:53:31;75.75;;;16.70;;
23990;SDS011;12205;50.600;4.608;2024-03-06T01:55:59;124.15;;;28.23;;
23990;SDS011;12205;50.600;4.608;2024-03-06T01:58:29;75.68;;;16.77;;
23990;SDS011;12205;50.600;4.608;2024-03-06T02:00:56;96.38;;;21.48;;
23990;SDS011;12205;50.600;4.608;2024-03-06T02:03:24;79.85;;;18.05;;
23990;SDS011;12205;50.600;4.608;2024-03-06T02:05:51;78.00;;;17.40;;
23990;SDS011;12205;50.600;4.608;2024-03-06T02:08:21;72.10;;;15.18;;
23990;SDS011;12205;50.600;4.608;2024-03-06T02:10:47;74.78;;;16.63;;
23990;SDS011;12205;50.600;4.608;2024-03-06T02:13:15;87.47;;;19.42;;
23990;SDS011;12205;50.600;4.608;2024-03-06T02:15:44;65.93;;;14.95;;
23990;SDS011;12205;50.600;4.608;2024-03-06T02:18:11;93.38;;;20.77;;
23990;SDS011;12205;50.600;4.608;2024-03-06T02:20:39;72.50;;;16.10;;
23990;SDS011;12205;50.600;4.608;2024-03-06T02:23:06;71.63;;;15.73;;
23990;SDS011;12205;50.600;4.608;2024-03-06T02:25:33;85.85;;;18.98;;
23990;SDS011;12205;50.600;4.608;2024-03-06T02:28:00;78.55;;;17.42;;
23990;SDS011;12205;50.600;4.608;2024-03-06T02:30:27;81.35;;;17.52;;
23990;SDS011;12205;50.600;4.608;2024-03-06T02:32:55;83.82;;;18.48;;
23990;SDS011;12205;50.600;4.608;2024-03-06T02:35:23;79.38;;;17.63;;
23990;SDS011;12205;50.600;4.608;2024-03-06T02:37:51;70.63;;;14.98;;
23990;SDS011;12205;50.600;4.608;2024-03-06T02:40:18;58.38;;;13.27;;
23990;SDS011;12205;50.600;4.608;2024-03-06T02:42:46;71.97;;;16.33;;
23990;SDS011;12205;50.600;4.608;2024-03-06T02:45:13;90.22;;;19.85;;
23990;SDS011;12205;50.600;4.608;2024-03-06T02:47:40;72.30;;;14.63;;
23990;SDS011;12205;50.600;4.608;2024-03-06T02:50:07;75.68;;;15.75;;
23990;SDS011;12205;50.600;4.608;2024-03-06T02:52:35;73.03;;;15.77;;
23990;SDS011;12205;50.600;4.608;2024-03-06T02:55:03;79.18;;;17.15;;
23990;SDS011;12205;50.600;4.608;2024-03-06T02:57:31;73.03;;;15.35;;
23990;SDS011;12205;50.600;4.608;2024-03-06T02:59:58;62.05;;;13.65;;
23990;SDS011;12205;50.600;4.608;2024-03-06T03:02:25;83.30;;;17.98;;
23990;SDS011;12205;50.600;4.608;2024-03-06T03:04:52;77.50;;;17.48;;
23990;SDS011;12205;50.600;4.608;2024-03-06T03:07:20;109.13;;;24.27;;
23990;SDS011;12205;50.600;4.608;2024-03-06T03:09:48;84.22;;;17.85;;
23990;SDS011;12205;50.600;4.608;2024-03-06T03:12:16;79.95;;;16.73;;
23990;SDS011;12205;50.600;4.608;2024-03-06T03:14:43;60.53;;;13.63;;
23990;SDS011;12205;50.600;4.608;2024-03-06T03:17:10;81.90;;;18.15;;
23990;SDS011;12205;50.600;4.608;2024-03-06T03:19:37;66.30;;;15.00;;
23990;SDS011;12205;50.600;4.608;2024-03-06T03:22:05;83.25;;;18.60;;
23990;SDS011;12205;50.600;4.608;2024-03-06T03:24:33;83.80;;;17.92;;
23990;SDS011;12205;50.600;4.608;2024-03-06T03:27:00;74.47;;;16.05;;
23990;SDS011;12205;50.600;4.608;2024-03-06T03:29:28;134.85;;;30.92;;
23990;SDS011;12205;50.600;4.608;2024-03-06T03:31:55;85.90;;;19.08;;
23990;SDS011;12205;50.600;4.608;2024-03-06T03:34:22;77.38;;;17.75;;
23990;SDS011;12205;50.600;4.608;2024-03-06T03:36:49;90.50;;;20.15;;
23990;SDS011;12205;50.600;4.608;2024-03-06T03:39:16;83.18;;;16.95;;
23990;SDS011;12205;50.600;4.608;2024-03-06T03:41:45;77.07;;;17.77;;
23990;SDS011;12205;50.600;4.608;2024-03-06T03:44:13;88.45;;;19.25;;
23990;SDS011;12205;50.600;4.608;2024-03-06T03:46:42;79.70;;;17.98;;
23990;SDS011;12205;50.600;4.608;2024-03-06T03:49:09;71.40;;;16.23;;
23990;SDS011;12205;50.600;4.608;2024-03-06T03:51:36;116.70;;;26.95;;
23990;SDS011;12205;50.600;4.608;2024-03-06T03:54:04;90.78;;;20.40;;
23990;SDS011;12205;50.600;4.608;2024-03-06T03:56:32;79.10;;;18.23;;
23990;SDS011;12205;50.600;4.608;2024-03-06T03:58:59;97.25;;;21.15;;
23990;SDS011;12205;50.600;4.608;2024-03-06T04:01:26;75.88;;;16.75;;
23990;SDS011;12205;50.600;4.608;2024-03-06T04:03:54;88.88;;;19.92;;
23990;SDS011;12205;50.600;4.608;2024-03-06T04:06:21;78.43;;;17.52;;
23990;SDS011;12205;50.600;4.608;2024-03-06T04:08:48;84.13;;;18.38;;
23990;SDS011;12205;50.600;4.608;2024-03-06T04:11:15;75.00;;;16.65;;
23990;SDS011;12205;50.600;4.608;2024-03-06T04:13:42;103.82;;;23.13;;
23990;SDS011;12205;50.600;4.608;2024-03-06T04:16:08;73.38;;;16.75;;
23990;SDS011;12205;50.600;4.608;2024-03-06T04:18:35;91.97;;;20.25;;
23990;SDS011;12205;50.600;4.608;2024-03-06T04:21:05;77.68;;;17.40;;
23990;SDS011;12205;50.600;4.608;2024-03-06T04:23:32;75.30;;;16.40;;
23990;SDS011;12205;50.600;4.608;2024-03-06T04:25:59;86.05;;;19.20;;
23990;SDS011;12205;50.600;4.608;2024-03-06T04:28:26;83.65;;;18.85;;
23990;SDS011;12205;50.600;4.608;2024-03-06T04:30:53;79.25;;;17.50;;
23990;SDS011;12205;50.600;4.608;2024-03-06T04:33:20;80.70;;;18.38;;
23990;SDS011;12205;50.600;4.608;2024-03-06T04:35:46;82.65;;;18.48;;
23990;SDS011;12205;50.600;4.608;2024-03-06T04:38:15;79.68;;;17.85;;
23990;SDS011;12205;50.600;4.608;2024-03-06T04:40:42;78.60;;;17.52;;
23990;SDS011;12205;50.600;4.608;2024-03-06T04:43:10;89.60;;;20.10;;
23990;SDS011;12205;50.600;4.608;2024-03-06T04:45:37;70.57;;;15.63;;
23990;SDS011;12205;50.600;4.608;2024-03-06T04:48:04;74.30;;;16.73;;
23990;SDS011;12205;50.600;4.608;2024-03-06T04:50:31;85.45;;;18.83;;
23990;SDS011;12205;50.600;4.608;2024-03-06T04:52:59;82.63;;;18.50;;
23990;SDS011;12205;50.600;4.608;2024-03-06T04:55:27;73.80;;;16.00;;
23990;SDS011;12205;50.600;4.608;2024-03-06T04:57:55;86.43;;;18.77;;
23990;SDS011;12205;50.600;4.608;2024-03-06T05:00:22;74.32;;;16.55;;
23990;SDS011;12205;50.600;4.608;2024-03-06T05:02:50;121.28;;;28.08;;
23990;SDS011;12205;50.600;4.608;2024-03-06T05:05:17;71.25;;;16.23;;
23990;SDS011;12205;50.600;4.608;2024-03-06T05:07:43;76.53;;;17.50;;
23990;SDS011;12205;50.600;4.608;2024-03-06T05:10:10;74.10;;;16.77;;
23990;SDS011;12205;50.600;4.608;2024-03-06T05:12:38;90.15;;;18.70;;
23990;SDS011;12205;50.600;4.608;2024-03-06T05:15:05;78.50;;;17.45;;
23990;SDS011;12205;50.600;4.608;2024-03-06T05:17:33;84.53;;;18.42;;
23990;SDS011;12205;50.600;4.608;2024-03-06T05:20:00;85.90;;;19.15;;
23990;SDS011;12205;50.600;4.608;2024-03-06T05:22:28;74.05;;;15.93;;
23990;SDS011;12205;50.600;4.608;2024-03-06T05:24:55;140.80;;;30.27;;
23990;SDS011;12205;50.600;4.608;2024-03-06T05:27:23;71.63;;;16.25;;
23990;SDS011;12205;50.600;4.608;2024-03-06T05:29:51;66.57;;;14.98;;
23990;SDS011;12205;50.600;4.608;2024-03-06T05:32:19;66.18;;;14.77;;
23990;SDS011;12205;50.600;4.608;2024-03-06T05:34:46;77.97;;;17.35;;
23990;SDS011;12205;50.600;4.608;2024-03-06T05:37:13;72.22;;;15.85;;
23990;SDS011;12205;50.600;4.608;2024-03-06T05:39:40;93.88;;;20.15;;
23990;SDS011;12205;50.600;4.608;2024-03-06T05:42:07;72.03;;;15.52;;
23990;SDS011;12205;50.600;4.608;2024-03-06T05:44:34;61.05;;;13.25;;
23990;SDS011;12205;50.600;4.608;2024-03-06T05:47:02;130.10;;;29.52;;
23990;SDS011;12205;50.600;4.608;2024-03-06T05:49:30;71.13;;;15.75;;
23990;SDS011;12205;50.600;4.608;2024-03-06T05:51:57;74.47;;;16.52;;
23990;SDS011;12205;50.600;4.608;2024-03-06T05:54:24;79.57;;;17.40;;
23990;SDS011;12205;50.600;4.608;2024-03-06T05:56:52;78.47;;;16.67;;
23990;SDS011;12205;50.600;4.608;2024-03-06T05:59:19;85.55;;;18.40;;
23990;SDS011;12205;50.600;4.608;2024-03-06T06:01:46;67.85;;;15.05;;
23990;SDS011;12205;50.600;4.608;2024-03-06T06:04:14;73.90;;;16.33;;
23990;SDS011;12205;50.600;4.608;2024-03-06T06:06:41;75.82;;;16.67;;
23990;SDS011;12205;50.600;4.608;2024-03-06T06:09:08;116.82;;;26.88;;
23990;SDS011;12205;50.600;4.608;2024-03-06T06:11:41;92.03;;;19.58;;
23990;SDS011;12205;50.600;4.608;2024-03-06T06:14:08;77.57;;;17.17;;
23990;SDS011;12205;50.600;4.608;2024-03-06T06:16:36;87.95;;;20.15;;
23990;SDS011;12205;50.600;4.608;2024-03-06T06:19:03;72.22;;;15.52;;
23990;SDS011;12205;50.600;4.608;2024-03-06T06:21:33;82.07;;;18.63;;
23990;SDS011;12205;50.600;4.608;2024-03-06T06:24:01;99.88;;;21.13;;
23990;SDS011;12205;50.600;4.608;2024-03-06T06:26:28;88.75;;;20.00;;
23990;SDS011;12205;50.600;4.608;2024-03-06T06:28:56;80.75;;;18.13;;
23990;SDS011;12205;50.600;4.608;2024-03-06T06:31:23;109.88;;;25.35;;
23990;SDS011;12205;50.600;4.608;2024-03-06T06:33:51;120.55;;;26.90;;
23990;SDS011;12205;50.600;4.608;2024-03-06T06:36:18;128.73;;;29.42;;
23990;SDS011;12205;50.600;4.608;2024-03-06T06:38:46;118.50;;;26.35;;
23990;SDS011;12205;50.600;4.608;2024-03-06T06:41:13;111.43;;;24.58;;
23990;SDS011;12205;50.600;4.608;2024-03-06T06:43:40;87.35;;;19.58;;
23990;SDS011;12205;50.600;4.608;2024-03-06T06:46:07;107.93;;;24.13;;
23990;SDS011;12205;50.600;4.608;2024-03-06T06:48:34;111.15;;;23.80;;
23990;SDS011;12205;50.600;4.608;2024-03-06T06:51:00;109.22;;;24.60;;
23990;SDS011;12205;50.600;4.608;2024-03-06T06:53:27;88.22;;;18.73;;
23990;SDS011;12205;50.600;4.608;2024-03-06T06:55:56;109.18;;;23.38;;
23990;SDS011;12205;50.600;4.608;2024-03-06T06:58:23;182.50;;;37.85;;
23990;SDS011;12205;50.600;4.608;2024-03-06T07:00:52;121.20;;;27.50;;
23990;SDS011;12205;50.600;4.608;2024-03-06T07:03:19;107.70;;;21.85;;
23990;SDS011;12205;50.600;4.608;2024-03-06T07:05:48;108.90;;;23.58;;
23990;SDS011;12205;50.600;4.608;2024-03-06T07:08:15;111.55;;;23.60;;
23990;SDS011;12205;50.600;4.608;2024-03-06T07:10:42;129.27;;;29.08;;
23990;SDS011;12205;50.600;4.608;2024-03-06T07:13:10;136.27;;;29.88;;
23990;SDS011;12205;50.600;4.608;2024-03-06T07:15:37;103.75;;;23.33;;
23990;SDS011;12205;50.600;4.608;2024-03-06T07:18:04;95.82;;;20.33;;
23990;SDS011;12205;50.600;4.608;2024-03-06T07:20:31;123.95;;;27.95;;
23990;SDS011;12205;50.600;4.608;2024-03-06T07:22:58;77.35;;;17.95;;
23990;SDS011;12205;50.600;4.608;2024-03-06T07:25:25;82.22;;;18.02;;
23990;SDS011;12205;50.600;4.608;2024-03-06T07:27:52;85.28;;;19.13;;
23990;SDS011;12205;50.600;4.608;2024-03-06T07:30:20;66.90;;;15.25;;
23990;SDS011;12205;50.600;4.608;2024-03-06T07:32:48;89.30;;;19.38;;
23990;SDS011;12205;50.600;4.608;2024-03-06T07:35:15;90.72;;;20.15;;
23990;SDS011;12205;50.600;4.608;2024-03-06T07:37:42;85.78;;;18.63;;
23990;SDS011;12205;50.600;4.608;2024-03-06T07:40:10;81.57;;;17.75;;
23990;SDS011;12205;50.600;4.608;2024-03-06T07:42:37;125.03;;;28.08;;
23990;SDS011;12205;50.600;4.608;2024-03-06T07:45:04;75.35;;;16.88;;
23990;SDS011;12205;50.600;4.608;2024-03-06T07:47:33;81.68;;;17.67;;
23990;SDS011;12205;50.600;4.608;2024-03-06T07:50:03;82.93;;;18.05;;
23990;SDS011;12205;50.600;4.608;2024-03-06T07:52:31;69.63;;;14.98;;
23990;SDS011;12205;50.600;4.608;2024-03-06T07:54:58;73.57;;;16.75;;
23990;SDS011;12205;50.600;4.608;2024-03-06T07:57:25;79.25;;;17.50;;
23990;SDS011;12205;50.600;4.608;2024-03-06T07:59:53;91.45;;;20.05;;
23990;SDS011;12205;50.600;4.608;2024-03-06T08:02:20;63.97;;;14.80;;
23990;SDS011;12205;50.600;4.608;2024-03-06T08:04:48;102.18;;;23.27;;
23990;SDS011;12205;50.600;4.608;2024-03-06T08:07:16;77.15;;;17.67;;
23990;SDS011;12205;50.600;4.608;2024-03-06T08:09:43;89.75;;;20.63;;
23990;SDS011;12205;50.600;4.608;2024-03-06T08:12:10;89.13;;;19.92;;
23990;SDS011;12205;50.600;4.608;2024-03-06T08:14:37;85.25;;;18.77;;
23990;SDS011;12205;50.600;4.608;2024-03-06T08:17:03;72.90;;;16.13;;
23990;SDS011;12205;50.600;4.608;2024-03-06T08:19:30;76.97;;;17.48;;
23990;SDS011;12205;50.600;4.608;2024-03-06T08:22:00;84.20;;;18.27;;
23990;SDS011;12205;50.600;4.608;2024-03-06T08:24:27;81.53;;;17.90;;
23990;SDS011;12205;50.600;4.608;2024-03-06T08:26:54;76.88;;;16.85;;
23990;SDS011;12205;50.600;4.608;2024-03-06T08:29:22;82.93;;;18.60;;
23990;SDS011;12205;50.600;4.608;2024-03-06T08:31:49;100.78;;;22.83;;
23990;SDS011;12205;50.600;4.608;2024-03-06T08:34:15;83.82;;;18.45;;
23990;SDS011;12205;50.600;4.608;2024-03-06T08:36:42;86.05;;;18.48;;
23990;SDS011;12205;50.600;4.608;2024-03-06T08:39:11;80.75;;;18.00;;
23990;SDS011;12205;50.600;4.608;2024-03-06T08:41:41;86.20;;;18.83;;
23990;SDS011;12205;50.600;4.608;2024-03-06T08:44:08;81.15;;;17.98;;
23990;SDS011;12205;50.600;4.608;2024-03-06T08:46:35;72.97;;;16.55;;
23990;SDS011;12205;50.600;4.608;2024-03-06T08:49:02;75.40;;;17.30;;
23990;SDS011;12205;50.600;4.608;2024-03-06T08:51:29;80.78;;;17.55;;
23990;SDS011;12205;50.600;4.608;2024-03-06T08:53:56;111.65;;;24.92;;
23990;SDS011;12205;50.600;4.608;2024-03-06T08:56:24;89.88;;;19.45;;
23990;SDS011;12205;50.600;4.608;2024-03-06T08:58:51;75.40;;;16.02;;
23990;SDS011;12205;50.600;4.608;2024-03-06T09:01:18;74.55;;;16.75;;
23990;SDS011;12205;50.600;4.608;2024-03-06T09:03:44;75.65;;;16.95;;
23990;SDS011;12205;50.600;4.608;2024-03-06T09:06:12;79.00;;;16.98;;
23990;SDS011;12205;50.600;4.608;2024-03-06T09:08:39;69.43;;;15.15;;
23990;SDS011;12205;50.600;4.608;2024-03-06T09:11:06;84.28;;;18.20;;
23990;SDS011;12205;50.600;4.608;2024-03-06T09:13:34;68.63;;;14.57;;
23990;SDS011;12205;50.600;4.608;2024-03-06T09:16:02;108.28;;;23.55;;
23990;SDS011;12205;50.600;4.608;2024-03-06T09:18:29;78.95;;;16.70;;
23990;SDS011;12205;50.600;4.608;2024-03-06T09:20:56;72.10;;;15.88;;
23990;SDS011;12205;50.600;4.608;2024-03-06T09:23:23;81.38;;;16.95;;
23990;SDS011;12205;50.600;4.608;2024-03-06T09:25:51;75.80;;;16.23;;
23990;SDS011;12205;50.600;4.608;2024-03-06T09:28:19;80.43;;;17.60;;
23990;SDS011;12205;50.600;4.608;2024-03-06T09:30:47;83.80;;;18.15;;
23990;SDS011;12205;50.600;4.608;2024-03-06T09:33:14;75.55;;;17.00;;
23990;SDS011;12205;50.600;4.608;2024-03-06T09:35:41;65.63;;;14.45;;
23990;SDS011;12205;50.600;4.608;2024-03-06T09:38:10;101.03;;;21.88;;
23990;SDS011;12205;50.600;4.608;2024-03-06T09:40:38;64.32;;;14.27;;
23990;SDS011;12205;50.600;4.608;2024-03-06T09:43:06;73.10;;;16.23;;
23990;SDS011;12205;50.600;4.608;2024-03-06T09:45:34;65.15;;;14.38;;
23990;SDS011;12205;50.600;4.608;2024-03-06T09:48:03;62.33;;;13.90;;
23990;SDS011;12205;50.600;4.608;2024-03-06T09:50:31;72.68;;;15.57;;
23990;SDS011;12205;50.600;4.608;2024-03-06T09:53:06;63.58;;;13.88;;
23990;SDS011;12205;50.600;4.608;2024-03-06T09:55:36;65.18;;;14.57;;
23990;SDS011;12205;50.600;4.608;2024-03-06T09:58:03;81.72;;;17.70;;
23990;SDS011;12205;50.600;4.608;2024-03-06T10:00:30;81.85;;;17.17;;
23990;SDS011;12205;50.600;4.608;2024-03-06T10:02:59;83.45;;;18.98;;
23990;SDS011;12205;50.600;4.608;2024-03-06T10:05:27;111.63;;;25.42;;
23990;SDS011;12205;50.600;4.608;2024-03-06T10:07:55;77.47;;;17.60;;
23990;SDS011;12205;50.600;4.608;2024-03-06T10:10:24;78.18;;;16.40;;
23990;SDS011;12205;50.600;4.608;2024-03-06T10:12:52;68.18;;;15.13;;
23990;SDS011;12205;50.600;4.608;2024-03-06T10:15:19;68.90;;;15.25;;
23990;SDS011;12205;50.600;4.608;2024-03-06T10:17:46;53.83;;;12.70;;
23990;SDS011;12205;50.600;4.608;2024-03-06T10:20:20;71.53;;;15.48;;
23990;SDS011;12205;50.600;4.608;2024-03-06T10:22:50;68.47;;;14.90;;
23990;SDS011;12205;50.600;4.608;2024-03-06T10:25:18;76.55;;;16.10;;
23990;SDS011;12205;50.600;4.608;2024-03-06T10:27:46;73.95;;;16.35;;
23990;SDS011;12205;50.600;4.608;2024-03-06T10:30:28;57.10;;;12.68;;
23990;SDS011;12205;50.600;4.608;2024-03-06T10:32:56;115.15;;;24.83;;
23990;SDS011;12205;50.600;4.608;2024-03-06T10:35:23;66.45;;;14.82;;
23990;SDS011;12205;50.600;4.608;2024-03-06T10:37:52;65.43;;;14.40;;
23990;SDS011;12205;50.600;4.608;2024-03-06T10:40:21;59.00;;;13.20;;
23990;SDS011;12205;50.600;4.608;2024-03-06T10:42:49;75.05;;;15.65;;
23990;SDS011;12205;50.600;4.608;2024-03-06T10:45:16;79.20;;;17.13;;
23990;SDS011;12205;50.600;4.608;2024-03-06T10:47:47;65.20;;;13.90;;
23990;SDS011;12205;50.600;4.608;2024-03-06T10:50:15;63.22;;;13.75;;
23990;SDS011;12205;50.600;4.608;2024-03-06T10:52:43;67.07;;;14.15;;
23990;SDS011;12205;50.600;4.608;2024-03-06T10:55:14;96.70;;;20.55;;
23990;SDS011;12205;50.600;4.608;2024-03-06T10:57:42;69.93;;;16.00;;
23990;SDS011;12205;50.600;4.608;2024-03-06T11:00:10;69.28;;;15.07;;
23990;SDS011;12205;50.600;4.608;2024-03-06T11:02:43;75.45;;;17.15;;
23990;SDS011;12205;50.600;4.608;2024-03-06T11:05:13;75.93;;;16.08;;
23990;SDS011;12205;50.600;4.608;2024-03-06T11:07:41;61.30;;;13.73;;
23990;SDS011;12205;50.600;4.608;2024-03-06T11:10:09;65.00;;;14.70;;
23990;SDS011;12205;50.600;4.608;2024-03-06T11:12:42;60.25;;;13.77;;
23990;SDS011;12205;50.600;4.608;2024-03-06T11:15:14;67.20;;;15.00;;
23990;SDS011;12205;50.600;4.608;2024-03-06T11:17:42;50.60;;;10.82;;
23990;SDS011;12205;50.600;4.608;2024-03-06T11:20:12;66.35;;;14.45;;
23990;SDS011;12205;50.600;4.608;2024-03-06T11:23:02;69.50;;;15.88;;
23990;SDS011;12205;50.600;4.608;2024-03-06T11:28:25;68.57;;;14.90;;
23990;SDS011;12205;50.600;4.608;2024-03-06T11:30:57;49.67;;;10.85;;
23990;SDS011;12205;50.600;4.608;2024-03-06T11:33:33;75.93;;;17.50;;
23990;SDS011;12205;50.600;4.608;2024-03-06T11:36:18;58.15;;;13.70;;
23990;SDS011;12205;50.600;4.608;2024-03-06T11:38:56;59.03;;;13.85;;
23990;SDS011;12205;50.600;4.608;2024-03-06T11:41:25;54.78;;;11.93;;
23990;SDS011;12205;50.600;4.608;2024-03-06T11:43:55;47.55;;;10.38;;
23990;SDS011;12205;50.600;4.608;2024-03-06T11:46:22;52.08;;;11.60;;
23990;SDS011;12205;50.600;4.608;2024-03-06T11:49:06;43.75;;;10.02;;
23990;SDS011;12205;50.600;4.608;2024-03-06T11:54:08;49.35;;;11.73;;
23990;SDS011;12205;50.600;4.608;2024-03-06T11:56:36;49.60;;;11.65;;
23990;SDS011;12205;50.600;4.608;2024-03-06T11:59:06;44.90;;;10.48;;
23990;SDS011;12205;50.600;4.608;2024-03-06T12:01:34;48.70;;;11.20;;
23990;SDS011;12205;50.600;4.608;2024-03-06T12:04:02;45.35;;;10.13;;
23990;SDS011;12205;50.600;4.608;2024-03-06T12:06:30;69.10;;;15.95;;
23990;SDS011;12205;50.600;4.608;2024-03-06T12:08:58;36.60;;;9.10;;
23990;SDS011;12205;50.600;4.608;2024-03-06T12:11:25;46.17;;;10.20;;
23990;SDS011;12205;50.600;4.608;2024-03-06T12:13:53;43.13;;;10.30;;
23990;SDS011;12205;50.600;4.608;2024-03-06T12:16:23;39.95;;;9.18;;
23990;SDS011;12205;50.600;4.608;2024-03-06T12:18:54;40.20;;;9.32;;
23990;SDS011;12205;50.600;4.608;2024-03-06T12:21:23;40.85;;;9.70;;
23990;SDS011;12205;50.600;4.608;2024-03-06T12:24:01;51.38;;;11.63;;
23990;SDS011;12205;50.600;4.608;2024-03-06T12:26:29;45.88;;;10.43;;
23990;SDS011;12205;50.600;4.608;2024-03-06T12:29:03;31.70;;;7.47;;
23990;SDS011;12205;50.600;4.608;2024-03-06T12:31:35;38.50;;;9.48;;
23990;SDS011;12205;50.600;4.608;2024-03-06T12:34:05;60.22;;;14.90;;
23990;SDS011;12205;50.600;4.608;2024-03-06T12:36:32;34.65;;;8.68;;
23990;SDS011;12205;50.600;4.608;2024-03-06T12:39:00;36.90;;;9.52;;
23990;SDS011;12205;50.600;4.608;2024-03-06T12:41:28;26.65;;;6.85;;
23990;SDS011;12205;50.600;4.608;2024-03-06T12:43:56;33.58;;;8.48;;
23990;SDS011;12205;50.600;4.608;2024-03-06T12:46:23;43.97;;;9.30;;
23990;SDS011;12205;50.600;4.608;2024-03-06T12:48:52;52.20;;;12.82;;
23990;SDS011;12205;50.600;4.608;2024-03-06T12:51:19;47.50;;;10.48;;
23990;SDS011;12205;50.600;4.608;2024-03-06T12:53:47;76.85;;;20.50;;
23990;SDS011;12205;50.600;4.608;2024-03-06T12:56:14;144.30;;;43.67;;
23990;SDS011;12205;50.600;4.608;2024-03-06T12:58:41;121.25;;;36.22;;
23990;SDS011;12205;50.600;4.608;2024-03-06T13:01:08;119.15;;;36.08;;
23990;SDS011;12205;50.600;4.608;2024-03-06T13:03:35;142.90;;;46.47;;
23990;SDS011;12205;50.600;4.608;2024-03-06T13:06:04;134.75;;;52.55;;
23990;SDS011;12205;50.600;4.608;2024-03-06T13:08:31;103.88;;;31.33;;
23990;SDS011;12205;50.600;4.608;2024-03-06T13:10:58;114.00;;;37.05;;
23990;SDS011;12205;50.600;4.608;2024-03-06T13:13:25;131.95;;;45.33;;
23990;SDS011;12205;50.600;4.608;2024-03-06T13:15:54;168.43;;;58.70;;
23990;SDS011;12205;50.600;4.608;2024-03-06T13:18:21;110.65;;;38.28;;
23990;SDS011;12205;50.600;4.608;2024-03-06T13:20:48;134.85;;;46.50;;
23990;SDS011;12205;50.600;4.608;2024-03-06T13:23:16;148.82;;;53.45;;
23990;SDS011;12205;50.600;4.608;2024-03-06T13:25:44;144.27;;;52.22;;
23990;SDS011;12205;50.600;4.608;2024-03-06T13:28:12;116.97;;;38.63;;
23990;SDS011;12205;50.600;4.608;2024-03-06T13:30:42;125.57;;;44.13;;
23990;SDS011;12205;50.600;4.608;2024-03-06T13:33:09;134.07;;;42.75;;
23990;SDS011;12205;50.600;4.608;2024-03-06T13:35:37;126.03;;;46.85;;
23990;SDS011;12205;50.600;4.608;2024-03-06T13:38:04;128.93;;;39.00;;
23990;SDS011;12205;50.600;4.608;2024-03-06T13:40:32;119.35;;;42.60;;
23990;SDS011;12205;50.600;4.608;2024-03-06T13:42:59;115.47;;;36.50;;
23990;SDS011;12205;50.600;4.608;2024-03-06T13:45:26;133.63;;;39.58;;
23990;SDS011;12205;50.600;4.608;2024-03-06T13:47:53;72.80;;;20.65;;
23990;SDS011;12205;50.600;4.608;2024-03-06T13:50:20;73.10;;;19.77;;
23990;SDS011;12205;50.600;4.608;2024-03-06T13:52:48;67.97;;;16.88;;
23990;SDS011;12205;50.600;4.608;2024-03-06T13:55:16;93.28;;;26.20;;
23990;SDS011;12205;50.600;4.608;2024-03-06T13:57:45;161.95;;;44.60;;
23990;SDS011;12205;50.600;4.608;2024-03-06T14:00:12;137.32;;;40.65;;
23990;SDS011;12205;50.600;4.608;2024-03-06T14:02:42;108.28;;;27.33;;
23990;SDS011;12205;50.600;4.608;2024-03-06T14:05:10;115.15;;;28.50;;
23990;SDS011;12205;50.600;4.608;2024-03-06T14:07:38;140.77;;;35.13;;
23990;SDS011;12205;50.600;4.608;2024-03-06T14:10:06;98.45;;;25.38;;
23990;SDS011;12205;50.600;4.608;2024-03-06T14:12:35;86.90;;;21.52;;
23990;SDS011;12205;50.600;4.608;2024-03-06T14:15:04;102.70;;;24.65;;
23990;SDS011;12205;50.600;4.608;2024-03-06T14:17:34;75.80;;;17.77;;
23990;SDS011;12205;50.600;4.608;2024-03-06T14:20:00;89.45;;;21.38;;
23990;SDS011;12205;50.600;4.608;2024-03-06T14:22:28;76.38;;;18.90;;
23990;SDS011;12205;50.600;4.608;2024-03-06T14:24:55;84.00;;;21.40;;
23990;SDS011;12205;50.600;4.608;2024-03-06T14:27:22;83.40;;;21.88;;